Time;durP1;ratioP1;P1;durP2;ratioP2;P2;SDS_P1;SDS_P2;PMS_P1;PMS_P2;Temp;Humidity;BMP_temperature;BMP_pressure;BME280_temperature;BME280_humidity;BME280_pressure;Samples;Min_cycle;Max_cycle;Signal;HPM_P1;HPM_P2
2023/10/20 00:02:06;;;;;;;70.28;66.75;;;;;;;22.09;75.51;95887.66;5077363;27;103635;-61
2023/10/20 00:04:34;;;;;;;62.63;59.37;;;;;;;21.97;76.75;95871.63;5075407;27;104039;-61
2023/10/20 00:07:03;;;;;;;80.35;76.53;;;;;;;22.82;73.30;95868.31;5075839;27;104425;-61
2023/10/20 00:09:31;;;;;;;100.85;96.65;;;;;;;23.17;71.51;95865.09;5078304;27;103013;-69
2023/10/20 00:12:01;;;;;;;94.93;90.93;;;;;;;23.19;70.75;95869.13;5079113;27;104422;-69
2023/10/20 00:14:29;;;;;;;90.82;87.10;;;;;;;23.17;70.68;95865.91;5078862;27;104043;-70
2023/10/20 00:16:57;;;;;;;95.00;91.07;;;;;;;23.26;70.35;95864.38;5075411;27;102955;-69
2023/10/20 00:19:27;;;;;;;103.03;98.80;;;;;;;23.39;69.83;95863.13;5056425;27;104072;-69
2023/10/20 00:21:55;;;;;;;94.50;90.30;;;;;;;22.90;69.27;95857.88;5078685;27;103955;-69
2023/10/20 00:24:23;;;;;;;72.70;69.50;;;;;;;22.69;73.04;95872.19;5079958;27;103868;-70
2023/10/20 00:26:51;;;;;;;91.88;88.05;;;;;;;23.00;70.98;95870.59;5059448;27;103257;-69
2023/10/20 00:29:21;;;;;;;87.00;83.40;;;;;;;23.01;71.09;95862.28;5072287;27;103322;-69
2023/10/20 00:31:49;;;;;;;77.97;74.23;;;;;;;22.09;73.23;95863.44;5073473;27;103016;-69
2023/10/20 00:34:16;;;;;;;71.63;68.38;;;;;;;22.75;73.26;95863.13;5061249;27;103378;-69
2023/10/20 00:36:46;;;;;;;79.28;75.88;;;;;;;22.99;70.87;95864.41;5078231;27;103364;-69
2023/10/20 00:39:14;;;;;;;91.97;88.23;;;;;;;23.24;70.79;95866.50;5058881;27;103017;-69
2023/10/20 00:41:42;;;;;;;92.40;88.47;;;;;;;23.13;69.64;95855.91;5061400;27;102718;-69
2023/10/20 00:44:10;;;;;;;70.80;67.00;;;;;;;21.67;75.59;95844.34;5075047;27;103876;-69
2023/10/20 00:46:38;;;;;;;48.60;45.90;;;;;;;21.22;80.64;95841.81;5057171;27;104237;-69
2023/10/20 00:49:08;;;;;;;49.47;46.70;;;;;;;21.12;81.62;95831.75;5076738;27;102935;-69
2023/10/20 00:51:36;;;;;;;50.45;47.78;;;;;;;21.74;77.52;95826.16;5061284;27;104060;-69
2023/10/20 00:54:13;;;;;;;57.47;54.85;;;;;;;22.29;77.45;95816.09;5056022;27;104139;-69
2023/10/20 00:56:42;;;;;;;74.40;71.20;;;;;;;22.63;74.80;95823.94;5060712;27;104144;-68
2023/10/20 00:59:10;;;;;;;85.10;81.53;;;;;;;22.93;73.40;95826.94;5060081;27;102955;-68
2023/10/20 01:01:40;;;;;;;86.03;82.07;;;;;;;22.62;72.66;95820.47;5051814;27;103103;-69
2023/10/20 01:04:08;;;;;;;71.10;67.70;;;;;;;22.41;73.88;95816.75;5073181;27;103252;-69
2023/10/20 01:06:37;;;;;;;87.05;83.55;;;;;;;23.01;72.22;95813.03;5059782;27;103211;-69
2023/10/20 01:09:10;;;;;;;80.53;77.03;;;;;;;22.49;72.06;95808.22;5077097;27;102699;-68
2023/10/20 01:11:39;;;;;;;67.75;64.85;;;;;;;22.42;72.81;95799.56;5061042;27;102735;-69
2023/10/20 01:14:07;;;;;;;87.50;83.97;;;;;;;22.91;71.77;95796.78;5061520;27;103547;-68
2023/10/20 01:16:34;;;;;;;81.05;77.45;;;;;;;22.81;71.01;95796.69;5056196;27;103399;-69
2023/10/20 01:19:02;;;;;;;90.60;86.80;;;;;;;22.87;70.80;95791.13;5056981;27;103245;-69
2023/10/20 01:21:30;;;;;;;95.15;91.45;;;;;;;23.14;70.66;95785.66;5060202;27;102762;-69
2023/10/20 01:24:02;;;;;;;86.63;83.23;;;;;;;23.23;69.84;95778.72;5053879;27;104639;-69
2023/10/20 01:26:30;;;;;;;66.57;63.38;;;;;;;21.78;74.60;95789.69;5059340;27;103002;-68
2023/10/20 01:28:59;;;;;;;47.83;45.42;;;;;;;21.63;77.31;95774.19;5058421;27;102595;-69
2023/10/20 01:31:27;;;;;;;57.10;54.58;;;;;;;22.38;75.30;95774.22;5061399;27;103875;-69
2023/10/20 01:33:55;;;;;;;74.57;71.28;;;;;;;22.81;73.26;95769.78;5053948;27;104460;-70
2023/10/20 01:36:23;;;;;;;86.72;83.07;;;;;;;22.88;72.05;95756.91;5074982;27;103984;-69
2023/10/20 01:38:53;;;;;;;87.63;83.63;;;;;;;22.98;70.24;95751.63;5060622;27;102713;-68
2023/10/20 01:41:26;;;;;;;79.82;76.30;;;;;;;22.98;70.39;95743.56;5055816;27;104062;-69
2023/10/20 01:43:54;;;;;;;90.13;86.47;;;;;;;23.14;69.47;95730.97;5056590;27;103475;-69
2023/10/20 01:46:22;;;;;;;88.38;84.47;;;;;;;23.12;69.28;95725.06;5077757;27;103182;-68
2023/10/20 01:48:50;;;;;;;88.85;84.97;;;;;;;22.97;69.14;95720.38;5076182;27;102893;-69
2023/10/20 01:51:18;;;;;;;53.93;51.33;;;;;;;21.69;75.60;95721.34;5061010;27;103336;-69
2023/10/20 01:53:46;;;;;;;48.47;45.90;;;;;;;21.66;76.60;95700.34;5056489;27;104416;-68
2023/10/20 01:56:14;;;;;;;66.25;63.13;;;;;;;22.27;74.03;95689.16;5059793;27;104401;-68
2023/10/20 01:58:44;;;;;;;60.35;57.35;;;;;;;21.81;75.16;95676.34;5059996;27;102833;-69
2023/10/20 02:01:11;;;;;;;70.18;66.90;;;;;;;22.36;73.21;95650.00;5082870;27;103637;-69
2023/10/20 02:03:39;;;;;;;55.42;52.47;;;;;;;21.60;76.53;95656.50;5081413;27;103208;-69
2023/10/20 02:06:09;;;;;;;49.47;46.78;;;;;;;21.50;78.26;95645.63;5059691;27;104170;-69
2023/10/20 02:08:39;;;;;;;51.58;48.47;;;;;;;20.59;82.17;95632.94;5059808;27;102621;-69
2023/10/20 02:11:08;;;;;;;56.00;52.97;;;;;;;21.12;80.66;95627.78;5077814;27;102949;-69
2023/10/20 02:13:36;;;;;;;56.17;53.07;;;;;;;21.19;80.49;95625.69;5057491;27;104254;-69
2023/10/20 02:16:07;;;;;;;68.15;65.13;;;;;;;22.22;76.17;95603.09;5081239;27;103171;-68
2023/10/20 02:18:35;;;;;;;90.38;86.78;;;;;;;22.64;74.61;95613.09;5061975;27;102667;-70
2023/10/20 02:21:04;;;;;;;79.18;75.63;;;;;;;22.28;74.02;95599.38;5081788;27;103931;-69
2023/10/20 02:23:32;;;;;;;57.63;54.67;;;;;;;22.16;75.26;95601.44;5063663;27;103288;-69
2023/10/20 02:26:02;;;;;;;76.60;73.50;;;;;;;22.75;73.05;95583.28;5062263;27;103210;-68
2023/10/20 02:28:30;;;;;;;90.25;86.75;;;;;;;22.94;71.91;95594.41;5060382;27;102820;-69
2023/10/20 02:31:00;;;;;;;98.38;94.47;;;;;;;22.83;71.92;95590.06;5074151;27;102816;-68
2023/10/20 02:33:30;;;;;;;95.63;91.77;;;;;;;22.97;71.11;95575.84;5077728;27;104120;-69
2023/10/20 02:35:58;;;;;;;96.28;92.47;;;;;;;22.99;70.55;95562.13;5073016;27;103131;-69
2023/10/20 02:38:26;;;;;;;99.10;95.00;;;;;;;23.02;69.65;95554.34;5064863;27;102739;-68
2023/10/20 02:40:55;;;;;;;94.00;90.10;;;;;;;23.09;69.32;95556.78;5057543;27;104167;-69
2023/10/20 02:43:28;;;;;;;93.20;89.43;;;;;;;22.96;69.50;95573.44;5078718;27;103744;-69
2023/10/20 02:45:56;;;;;;;106.50;102.40;;;;;;;23.14;69.50;95578.34;5079732;27;103079;-69
2023/10/20 02:48:24;;;;;;;121.72;117.03;;;;;;;23.23;69.10;95576.75;5080311;27;102734;-69
2023/10/20 02:50:54;;;;;;;113.57;109.18;;;;;;;23.24;68.33;95574.88;5058526;27;102684;-69
2023/10/20 02:53:22;;;;;;;103.77;99.67;;;;;;;23.10;68.70;95579.97;5079752;27;104011;-69
2023/10/20 02:55:50;;;;;;;121.87;117.07;;;;;;;23.24;67.84;95580.28;5078064;27;103287;-69
2023/10/20 02:58:18;;;;;;;114.50;110.00;;;;;;;23.23;67.94;95574.06;5077356;27;102907;-69
2023/10/20 03:00:50;;;;;;;122.05;117.30;;;;;;;23.32;68.02;95571.69;5076137;27;103260;-69
2023/10/20 03:03:18;;;;;;;116.47;111.97;;;;;;;23.31;68.17;95586.22;5076853;27;103964;-69
2023/10/20 03:05:46;;;;;;;112.47;107.97;;;;;;;23.30;67.96;95584.59;5053821;27;103185;-70
2023/10/20 03:08:17;;;;;;;116.25;111.65;;;;;;;23.40;67.68;95593.53;5056151;27;102887;-70
2023/10/20 03:10:45;;;;;;;90.30;86.45;;;;;;;23.25;68.34;95592.66;5059375;27;103758;-62
2023/10/20 03:13:13;;;;;;;104.50;100.10;;;;;;;23.36;67.35;95588.91;5074553;27;104992;-62
2023/10/20 03:15:41;;;;;;;111.70;107.30;;;;;;;23.50;67.66;95576.59;5054769;27;104106;-62
2023/10/20 03:18:09;;;;;;;98.72;94.50;;;;;;;23.39;67.51;95561.47;5074992;27;102615;-63
2023/10/20 03:20:37;;;;;;;87.78;84.22;;;;;;;23.29;67.84;95562.25;5060206;27;104038;-62
2023/10/20 03:23:05;;;;;;;107.88;103.68;;;;;;;23.52;67.00;95556.38;5077549;27;103704;-61
2023/10/20 03:25:36;;;;;;;103.78;99.70;;;;;;;23.36;68.31;95541.25;5076995;27;103164;-62
2023/10/20 03:28:05;;;;;;;121.65;117.00;;;;;;;23.40;68.01;95526.22;5072807;27;102808;-62
2023/10/20 03:30:38;;;;;;;109.75;105.55;;;;;;;23.50;67.15;95517.31;5062831;27;103998;-62
2023/10/20 03:33:10;;;;;;;119.65;115.13;;;;;;;23.65;66.59;95511.97;5060207;27;104339;-62
2023/10/20 03:35:38;;;;;;;102.25;98.25;;;;;;;23.51;66.38;95518.94;5078229;27;105252;-62
2023/10/20 03:38:07;;;;;;;106.18;101.82;;;;;;;23.45;66.32;95517.31;5080578;27;102847;-69
2023/10/20 03:40:37;;;;;;;58.65;55.75;;;;;;;22.33;71.74;95505.31;5077312;27;104072;-70
2023/10/20 03:43:06;;;;;;;44.72;42.33;;;;;;;21.41;76.88;95494.13;5076866;27;103947;-70
2023/10/20 03:45:41;;;;;;;41.53;38.87;;;;;;;20.72;81.15;95477.00;5078872;27;103431;-70
2023/10/20 03:48:09;;;;;;;41.80;39.33;;;;;;;21.42;79.35;95482.31;5059001;27;104258;-62
2023/10/20 03:50:41;;;;;;;51.78;49.20;;;;;;;22.21;76.27;95491.25;5055932;27;104536;-65
2023/10/20 03:53:12;;;;;;;63.73;60.50;;;;;;;21.73;76.62;95478.00;5049433;27;104509;-61
2023/10/20 03:55:43;;;;;;;51.95;48.83;;;;;;;21.17;79.68;95458.75;5072549;27;103206;-62
2023/10/20 03:58:14;;;;;;;53.50;50.10;;;;;;;20.10;85.89;95450.50;5073570;27;102857;-60
2023/10/20 04:00:42;;;;;;;50.88;47.47;;;;;;;20.08;86.70;95441.09;5077979;27;103950;-60
2023/10/20 04:03:10;;;;;;;54.75;51.33;;;;;;;19.74;89.15;95447.56;5075148;27;103813;-61
2023/10/20 04:05:38;;;;;;;60.20;56.58;;;;;;;19.87;88.74;95442.69;5076378;27;103212;-60
2023/10/20 04:08:07;;;;;;;57.35;53.97;;;;;;;20.35;86.00;95433.16;5079917;27;102543;-60
2023/10/20 04:10:35;;;;;;;56.33;53.55;;;;;;;21.69;81.71;95433.94;5077881;27;103750;-60
2023/10/20 04:13:04;;;;;;;80.93;77.32;;;;;;;21.76;80.26;95421.06;5073638;27;104066;-60
2023/10/20 04:15:36;;;;;;;88.90;85.00;;;;;;;21.83;78.72;95413.63;5078987;27;103421;-61
2023/10/20 04:18:05;;;;;;;76.22;72.72;;;;;;;21.30;81.28;95398.47;5074538;27;103169;-60
2023/10/20 04:20:37;;;;;;;67.85;64.95;;;;;;;21.15;81.37;95388.41;5079227;27;102834;-60
2023/10/20 04:23:06;;;;;;;92.22;88.43;;;;;;;20.89;81.16;95375.81;5078905;27;104632;-61
2023/10/20 04:25:39;;;;;;;77.27;74.07;;;;;;;20.44;84.73;95370.81;5075977;27;103241;-60
2023/10/20 04:28:14;;;;;;;87.18;83.70;;;;;;;21.44;79.86;95366.63;5074895;27;103714;-60
2023/10/20 04:42:01;;;;;;;76.90;73.72;;;;;;;21.27;79.59;95323.84;5060543;27;104159;-61
2023/10/20 04:54:41;;;;;;;91.27;87.77;;;;;;;22.33;74.97;95287.53;5088741;27;103175;-62
2023/10/20 04:57:49;;;;;;;99.13;95.38;;;;;;;22.56;73.67;95283.53;5065802;27;104036;-61
2023/10/20 05:00:36;;;;;;;106.80;102.85;;;;;;;22.70;72.75;95273.91;5069154;27;104107;-61
2023/10/20 05:03:22;;;;;;;107.82;103.82;;;;;;;22.82;72.02;95260.19;5053840;27;104064;-61
2023/10/20 05:06:05;;;;;;;104.40;100.47;;;;;;;22.86;71.29;95255.88;5069144;27;102971;-60
2023/10/20 05:08:33;;;;;;;83.63;80.13;;;;;;;21.75;73.71;95236.81;5046694;27;102937;-61
2023/10/20 05:11:03;;;;;;;73.50;70.50;;;;;;;21.77;74.29;95221.25;5068494;27;103264;-60
2023/10/20 05:13:32;;;;;;;58.25;55.83;;;;;;;21.71;75.78;95219.59;5066133;27;103202;-61
2023/10/20 05:16:00;;;;;;;65.53;62.90;;;;;;;22.07;74.70;95213.28;5071393;27;102862;-60
2023/10/20 05:18:29;;;;;;;77.55;74.47;;;;;;;22.50;72.67;95209.31;5069339;27;102725;-60
2023/10/20 05:21:04;;;;;;;80.03;76.82;;;;;;;22.23;72.49;95195.31;5067521;27;104342;-60
2023/10/20 05:23:35;;;;;;;64.40;61.50;;;;;;;21.42;75.33;95183.53;5053987;27;104156;-60
2023/10/20 05:26:05;;;;;;;61.90;59.40;;;;;;;21.74;75.87;95170.72;5054054;27;102822;-61
2023/10/20 05:28:33;;;;;;;74.50;71.50;;;;;;;21.95;74.57;95164.38;5068813;27;104198;-62
2023/10/20 05:31:01;;;;;;;76.97;73.85;;;;;;;22.23;73.25;95160.38;5070452;27;104092;-60
2023/10/20 05:33:29;;;;;;;81.18;77.97;;;;;;;21.54;74.64;95163.44;5071974;27;103271;-61
2023/10/20 05:36:01;;;;;;;56.65;54.20;;;;;;;21.51;76.17;95163.94;5073897;27;102588;-60
2023/10/20 05:38:29;;;;;;;60.53;57.90;;;;;;;21.54;77.04;95165.28;5071484;27;103823;-60
2023/10/20 05:40:59;;;;;;;67.65;64.90;;;;;;;21.83;75.80;95161.91;5071849;27;103746;-60
2023/10/20 05:43:30;;;;;;;88.20;84.75;;;;;;;21.78;74.63;95151.13;5072731;27;103652;-60
2023/10/20 05:45:58;;;;;;;69.78;66.65;;;;;;;21.61;75.17;95141.69;5049344;27;102774;-60
2023/10/20 05:48:26;;;;;;;80.80;77.57;;;;;;;21.62;74.79;95116.44;5070892;27;103879;-72
2023/10/20 05:50:57;;;;;;;74.45;71.35;;;;;;;21.03;77.96;95092.59;5051931;27;103269;-71
2023/10/20 05:53:26;;;;;;;61.00;58.33;;;;;;;20.51;79.93;95086.44;5074219;27;103441;-71
2023/10/20 05:57:55;;;;;;;66.80;64.07;;;;;;;21.60;76.05;95087.19;5003179;27;102845;-70
2023/10/20 06:00:23;;;;;;;80.30;76.93;;;;;;;21.77;73.63;95100.38;5008482;28;103789;-71
2023/10/20 06:02:52;;;;;;;82.32;78.97;;;;;;;22.04;71.69;95098.25;5006194;27;103234;-71
2023/10/20 06:05:20;;;;;;;65.22;62.05;;;;;;;20.43;79.41;95078.91;5002382;27;103035;-72
2023/10/20 06:07:48;;;;;;;56.90;54.30;;;;;;;19.68;83.58;95058.47;4992844;27;103291;-71
2023/10/20 06:10:22;;;;;;;45.53;43.33;;;;;;;20.12;83.78;95062.59;4992871;28;103787;-71
2023/10/20 06:12:54;;;;;;;48.22;45.92;;;;;;;19.96;83.16;95063.53;4998308;28;104155;-71
2023/10/20 06:15:23;;;;;;;74.30;70.90;;;;;;;20.60;78.85;95061.56;4988480;28;104326;-61
2023/10/20 06:17:51;;;;;;;55.20;52.50;;;;;;;20.24;80.42;95047.16;5012719;28;102698;-60
2023/10/20 06:20:20;;;;;;;71.05;68.05;;;;;;;21.42;76.94;95041.25;5013523;27;102687;-62
2023/10/20 06:22:49;;;;;;;59.50;56.60;;;;;;;19.79;83.01;95025.34;5005697;28;103738;-70
2023/10/20 06:25:17;;;;;;;55.10;52.53;;;;;;;20.00;82.82;95019.09;5011861;28;103306;-70
2023/10/20 06:27:46;;;;;;;60.83;57.83;;;;;;;20.41;79.93;95014.81;5008474;28;102675;-71
2023/10/20 06:30:21;;;;;;;62.10;59.07;;;;;;;20.44;79.45;95008.13;5017950;27;102941;-60
2023/10/20 06:33:12;;;;;;;65.70;63.00;;;;;;;21.26;76.94;95025.09;5011709;27;102996;-60
2023/10/20 06:35:50;;;;;;;84.22;80.75;;;;;;;21.71;74.98;95013.63;5005370;28;103278;-60
2023/10/20 06:38:25;;;;;;;89.22;85.35;;;;;;;21.49;73.68;95014.94;4995066;28;103320;-60
2023/10/20 06:40:53;;;;;;;60.72;57.83;;;;;;;20.97;76.71;94990.94;5011194;28;103406;-60
2023/10/20 06:43:21;;;;;;;78.68;75.30;;;;;;;21.30;74.98;94996.69;5012150;28;103386;-60
2023/10/20 06:45:56;;;;;;;85.80;82.38;;;;;;;21.98;73.16;94983.81;4992887;28;104168;-61
2023/10/20 06:48:26;;;;;;;82.68;79.07;;;;;;;21.79;72.17;94966.59;5012341;28;102623;-60
2023/10/20 06:50:54;;;;;;;83.32;79.90;;;;;;;22.03;71.51;94951.56;5010394;27;104092;-60
2023/10/20 06:53:22;;;;;;;96.10;92.30;;;;;;;22.22;70.73;94959.84;5009934;27;103307;-63
2023/10/20 06:55:52;;;;;;;83.67;80.07;;;;;;;22.50;69.40;94962.72;5011134;27;104542;-61
2023/10/20 06:58:39;;;;;;;91.88;88.22;;;;;;;22.32;69.12;94955.25;5022517;27;102940;-71
2023/10/20 07:01:07;;;;;;;80.15;76.55;;;;;;;21.32;71.43;94948.91;5012973;27;103160;-61
2023/10/20 07:03:39;;;;;;;65.33;62.00;;;;;;;20.14;77.91;94949.81;5011593;27;103276;-60
2023/10/20 07:06:09;;;;;;;65.47;61.97;;;;;;;19.58;81.96;94948.63;5001901;27;104313;-61
2023/10/20 07:08:37;;;;;;;61.40;58.17;;;;;;;20.45;78.26;94950.78;4989441;28;103027;-71
2023/10/20 07:11:05;;;;;;;61.50;58.35;;;;;;;20.49;78.21;94941.94;5001687;28;104468;-71
2023/10/20 07:13:34;;;;;;;68.60;65.28;;;;;;;20.84;77.64;94943.94;4984160;28;104570;-71
2023/10/20 07:16:02;;;;;;;75.17;71.57;;;;;;;20.37;78.36;94927.97;4993687;28;103257;-71
2023/10/20 07:18:30;;;;;;;76.97;73.30;;;;;;;21.09;74.86;94911.84;5000376;28;102776;-62
2023/10/20 07:21:00;;;;;;;73.57;69.97;;;;;;;19.99;80.54;94910.34;4987249;28;102625;-71
2023/10/20 07:23:28;;;;;;;80.40;76.60;;;;;;;20.73;75.59;94915.50;4995687;28;103726;-71
2023/10/20 07:25:56;;;;;;;75.10;71.70;;;;;;;20.93;74.20;94920.91;4995856;28;103199;-71
2023/10/20 07:28:26;;;;;;;76.68;73.32;;;;;;;21.46;73.82;94924.19;4996850;28;102738;-71
2023/10/20 07:30:57;;;;;;;70.65;67.25;;;;;;;21.48;73.23;94933.59;5001456;28;104110;-71
2023/10/20 07:33:25;;;;;;;75.20;71.82;;;;;;;21.71;71.93;94934.91;4981545;28;104552;-71
2023/10/20 07:35:53;;;;;;;72.20;68.70;;;;;;;21.56;72.79;94934.94;5001264;28;103268;-71
2023/10/20 07:38:23;;;;;;;94.57;90.55;;;;;;;21.62;70.25;94929.28;4995158;28;102690;-71
2023/10/20 07:40:51;;;;;;;99.57;95.47;;;;;;;22.21;69.29;94932.16;4991768;28;102624;-72
2023/10/20 07:43:21;;;;;;;96.43;92.13;;;;;;;21.86;69.91;94919.59;4996644;28;103693;-69
2023/10/20 07:45:49;;;;;;;100.10;95.60;;;;;;;21.79;69.43;94931.69;4980001;28;104956;-72
2023/10/20 07:48:18;;;;;;;118.40;113.53;;;;;;;22.06;68.71;94917.97;4994460;28;102596;-71
2023/10/20 07:50:46;;;;;;;108.67;103.90;;;;;;;21.34;70.58;94909.16;4997121;28;102898;-71
2023/10/20 07:53:14;;;;;;;104.25;99.70;;;;;;;21.42;70.37;94920.44;4993415;28;104481;-61
2023/10/20 07:55:46;;;;;;;109.82;105.15;;;;;;;21.12;71.10;94919.34;4994636;28;103178;-71
2023/10/20 07:58:15;;;;;;;132.27;126.97;;;;;;;22.06;67.89;94924.16;4997989;28;102521;-61
2023/10/20 08:05:08;;;;;;;106.47;101.97;;;;;;;22.24;68.20;94902.06;4975735;28;103504;-69
2023/10/20 08:07:41;;;;;;;99.10;94.78;;;;;;;22.44;67.59;94918.13;4991383;28;103214;-70
2023/10/20 08:10:10;;;;;;;124.63;119.53;;;;;;;22.50;65.90;94917.00;4998752;28;103262;-70
2023/10/20 08:12:39;;;;;;;102.80;98.32;;;;;;;22.30;67.76;94914.41;4978847;28;102757;-71
2023/10/20 08:15:08;;;;;;;116.17;111.43;;;;;;;22.90;65.84;94928.69;4988550;28;103331;-70
2023/10/20 08:17:38;;;;;;;90.75;86.75;;;;;;;22.66;66.90;94925.84;4992683;28;103268;-71
2023/10/20 08:20:09;;;;;;;120.53;115.57;;;;;;;23.26;65.88;94931.94;4991360;28;102900;-72
2023/10/20 08:22:37;;;;;;;125.38;120.28;;;;;;;23.48;64.67;94927.78;4973997;28;103913;-71
2023/10/20 08:25:07;;;;;;;130.80;125.63;;;;;;;23.55;64.80;94928.25;4995566;28;103368;-69
2023/10/20 08:27:35;;;;;;;133.63;128.30;;;;;;;23.72;65.26;94940.50;4998241;28;103180;-69
2023/10/20 08:30:05;;;;;;;115.57;110.85;;;;;;;23.82;65.06;94948.50;4997329;28;102884;-69
2023/10/20 08:32:33;;;;;;;126.00;121.00;;;;;;;23.81;65.17;94949.56;4980914;28;102738;-68
2023/10/20 08:35:01;;;;;;;106.80;102.13;;;;;;;23.89;65.45;94954.38;4993144;28;104294;-68
2023/10/20 08:37:29;;;;;;;103.10;98.32;;;;;;;23.45;65.41;94957.16;4993539;28;103227;-61
2023/10/20 08:39:57;;;;;;;101.82;97.60;;;;;;;23.66;65.14;94977.47;5000878;28;102650;-61
2023/10/20 08:42:25;;;;;;;105.63;101.30;;;;;;;23.81;66.53;94987.28;4995133;28;103029;-62
2023/10/20 08:44:53;;;;;;;110.90;106.37;;;;;;;24.11;64.43;94981.69;5000116;28;104341;-62
2023/10/20 08:47:27;;;;;;;133.57;128.13;;;;;;;24.14;63.91;94986.50;4992909;27;103236;-62
2023/10/20 08:49:56;;;;;;;119.47;114.57;;;;;;;23.78;64.64;94993.25;4995098;28;102644;-69
2023/10/20 08:52:27;;;;;;;116.05;111.25;;;;;;;24.07;64.79;95015.66;4994004;28;102697;-69
2023/10/20 08:54:58;;;;;;;118.28;113.25;;;;;;;24.17;64.82;95046.03;4999128;28;104270;-71
2023/10/20 08:57:27;;;;;;;94.35;90.22;;;;;;;23.96;66.41;95070.72;5006613;28;104211;-70
2023/10/20 08:59:55;;;;;;;69.18;65.75;;;;;;;23.02;69.79;95071.75;4998032;28;102636;-70
2023/10/20 09:02:25;;;;;;;73.40;70.15;;;;;;;23.36;69.37;95094.22;5002754;28;103720;-63
2023/10/20 09:04:53;;;;;;;90.35;86.25;;;;;;;23.34;67.92;95112.56;4978948;28;104200;-63
2023/10/20 09:07:23;;;;;;;94.13;90.03;;;;;;;23.57;66.67;95117.31;4988483;28;103289;-63
2023/10/20 09:09:53;;;;;;;84.20;80.40;;;;;;;23.29;67.33;95120.66;4997883;28;102791;-64
2023/10/20 09:12:20;;;;;;;115.57;110.68;;;;;;;23.93;64.77;95125.19;4983003;28;103745;-64
2023/10/20 09:14:49;;;;;;;125.72;120.70;;;;;;;23.96;64.52;95130.03;4999957;28;104109;-63
2023/10/20 09:17:23;;;;;;;129.27;123.83;;;;;;;23.39;64.45;95127.91;4993326;28;103266;-64
2023/10/20 09:19:53;;;;;;;148.88;142.98;;;;;;;23.92;63.72;95107.41;4993818;28;102671;-63
2023/10/20 09:22:29;;;;;;;168.55;162.18;;;;;;;24.36;63.36;95116.28;4993274;28;102829;-64
2023/10/20 09:24:57;;;;;;;156.65;150.65;;;;;;;24.56;62.72;95113.38;4994058;28;104190;-69
2023/10/20 09:27:26;;;;;;;135.40;130.00;;;;;;;24.16;64.20;95108.34;4995704;28;103213;-69
2023/10/20 09:29:56;;;;;;;129.32;123.97;;;;;;;23.95;63.69;95090.66;4994314;28;102859;-70
2023/10/20 09:32:24;;;;;;;138.05;132.35;;;;;;;23.76;63.67;95087.03;4993712;28;102774;-64
2023/10/20 09:34:53;;;;;;;128.45;123.15;;;;;;;23.27;64.73;95103.19;4989477;28;103899;-64
2023/10/20 09:37:29;;;;;;;95.05;90.85;;;;;;;22.81;68.32;95102.53;4995776;28;103192;-64
2023/10/20 09:40:06;;;;;;;104.18;99.65;;;;;;;23.26;66.14;95099.66;4974095;28;102879;-63
2023/10/20 09:42:52;;;;;;;105.65;101.05;;;;;;;23.61;65.88;95106.78;4997871;28;103845;-64
2023/10/20 09:45:29;;;;;;;128.40;123.13;;;;;;;24.05;63.81;95109.47;4991694;28;103703;-64
2023/10/20 09:48:02;;;;;;;131.47;126.23;;;;;;;24.27;62.25;95101.78;4991887;28;103173;-64
2023/10/20 09:50:33;;;;;;;156.07;150.02;;;;;;;24.36;61.51;95129.75;4989206;28;102745;-64
2023/10/20 09:53:02;;;;;;;144.65;138.90;;;;;;;23.88;63.14;95146.78;4990068;28;103333;-70
2023/10/20 09:55:30;;;;;;;176.68;169.98;;;;;;;24.15;61.80;95149.88;4993498;28;103905;-70
2023/10/20 09:57:59;;;;;;;140.80;135.20;;;;;;;23.53;64.85;95156.66;4988812;28;103091;-64
2023/10/20 10:00:32;;;;;;;111.13;106.55;;;;;;;24.02;64.45;95164.75;4997004;28;102637;-71
2023/10/20 10:03:00;;;;;;;187.85;180.77;;;;;;;24.48;61.90;95164.44;4997649;28;104066;-64
2023/10/20 10:05:30;;;;;;;167.03;160.63;;;;;;;24.35;61.85;95167.78;4991077;28;103949;-69
2023/10/20 10:08:08;;;;;;;143.45;137.80;;;;;;;24.26;63.27;95182.94;4993878;28;103254;-69
2023/10/20 10:10:37;;;;;;;129.00;123.60;;;;;;;24.05;63.95;95193.84;4994888;28;103047;-69
2023/10/20 10:13:05;;;;;;;129.20;123.95;;;;;;;24.21;63.16;95197.28;4994809;28;104369;-69
2023/10/20 10:15:46;;;;;;;144.93;139.35;;;;;;;24.46;61.65;95194.41;4973320;28;104453;-63
2023/10/20 10:18:17;;;;;;;142.32;136.73;;;;;;;24.68;61.82;95196.66;4970813;28;104632;-64
2023/10/20 10:20:48;;;;;;;152.10;146.18;;;;;;;24.74;61.43;95195.50;4992200;28;102739;-64
2023/10/20 10:23:18;;;;;;;189.13;182.07;;;;;;;25.05;60.48;95206.88;4993650;28;103842;-64
2023/10/20 10:25:48;;;;;;;158.82;152.88;;;;;;;25.25;60.98;95201.25;4993809;28;103513;-69
2023/10/20 10:28:16;;;;;;;166.00;159.68;;;;;;;24.98;60.87;95219.91;4991231;28;103349;-69
2023/10/20 10:30:46;;;;;;;172.02;165.63;;;;;;;25.43;60.45;95218.63;5000231;28;102677;-70
2023/10/20 10:33:20;;;;;;;151.05;145.43;;;;;;;25.09;61.47;95224.94;4993764;28;103637;-70
2023/10/20 10:35:49;;;;;;;119.10;114.40;;;;;;;24.72;63.10;95219.28;4973271;28;104231;-70
2023/10/20 10:38:23;;;;;;;115.18;110.68;;;;;;;24.67;63.89;95222.03;4973558;28;104187;-70
2023/10/20 10:40:52;;;;;;;124.47;119.47;;;;;;;24.71;64.40;95213.09;4995693;28;103010;-69
2023/10/20 10:43:21;;;;;;;136.52;131.27;;;;;;;24.99;62.93;95224.19;4975066;28;102780;-70
2023/10/20 10:45:53;;;;;;;145.65;140.10;;;;;;;24.91;63.18;95224.81;4997235;28;103630;-70
2023/10/20 10:48:25;;;;;;;133.90;128.80;;;;;;;25.01;62.58;95224.75;4996037;28;103190;-70
2023/10/20 10:50:54;;;;;;;146.27;140.82;;;;;;;24.97;62.69;95229.09;4991493;28;104094;-71
2023/10/20 10:53:23;;;;;;;133.50;128.27;;;;;;;24.77;63.91;95228.16;4990592;28;104227;-70
2023/10/20 10:55:51;;;;;;;166.02;159.90;;;;;;;25.02;62.88;95240.66;4995589;28;103522;-68
2023/10/20 10:58:19;;;;;;;143.30;138.02;;;;;;;24.89;63.22;95235.91;4977355;28;104255;-68
2023/10/20 11:00:50;;;;;;;149.77;144.43;;;;;;;24.54;63.78;95234.25;4998860;28;103384;-68
2023/10/20 11:03:19;;;;;;;153.20;147.60;;;;;;;24.97;62.82;95232.59;4998085;28;103821;-63
2023/10/20 11:05:50;;;;;;;135.55;130.45;;;;;;;24.54;64.86;95228.88;4998608;28;103263;-62
2023/10/20 11:08:20;;;;;;;147.40;142.10;;;;;;;25.02;63.49;95245.22;4997579;28;103234;-62
2023/10/20 11:10:50;;;;;;;149.05;143.35;;;;;;;25.04;63.64;95253.88;4977137;28;103655;-63
2023/10/20 11:13:20;;;;;;;129.00;124.18;;;;;;;24.84;64.29;95254.03;4994969;28;102760;-62
2023/10/20 11:15:51;;;;;;;140.60;135.43;;;;;;;25.25;63.54;95256.09;4998822;28;103222;-62
2023/10/20 11:18:20;;;;;;;131.70;126.90;;;;;;;25.24;64.24;95259.06;4994113;28;103302;-63
2023/10/20 11:20:49;;;;;;;208.65;201.30;;;;;;;25.34;61.05;95246.28;4995376;28;102741;-63
2023/10/20 11:23:28;;;;;;;229.68;221.75;;;;;;;24.91;62.00;95243.72;4997659;28;102822;-63
2023/10/20 11:25:58;;;;;;;187.13;180.65;;;;;;;24.48;63.25;95256.97;4997205;28;103870;-62
2023/10/20 11:28:26;;;;;;;209.10;201.88;;;;;;;24.01;63.38;95267.44;4984135;28;104159;-68
2023/10/20 11:30:57;;;;;;;250.20;241.68;;;;;;;23.99;63.14;95275.00;4981679;28;102994;-68
2023/10/20 11:33:25;;;;;;;283.70;274.10;;;;;;;23.98;62.13;95278.78;5002719;28;102717;-68
2023/10/20 11:35:53;;;;;;;271.95;262.85;;;;;;;24.22;61.53;95274.41;4992687;28;104059;-69
2023/10/20 11:38:22;;;;;;;283.85;274.38;;;;;;;24.72;59.90;95279.47;4982488;28;104191;-68
2023/10/20 11:40:50;;;;;;;290.43;280.63;;;;;;;25.14;58.78;95278.06;4980439;28;102967;-62
2023/10/20 11:43:20;;;;;;;291.35;281.70;;;;;;;24.49;60.42;95284.75;4995416;28;103185;-63
2023/10/20 11:45:48;;;;;;;298.88;288.88;;;;;;;24.03;61.14;95281.44;4996049;28;104536;-69